createdAt,value
2018-11-04T00:01:40.237Z,79.87
2018-11-04T00:04:09.249Z,79.85
2018-11-04T00:06:38.325Z,78.22
2018-11-04T00:09:08.667Z,79.25
2018-11-04T00:11:37.869Z,79.74
2018-11-04T00:14:06.984Z,79.63
2018-11-04T00:16:36.197Z,79.14
2018-11-04T00:19:05.323Z,78.30
2018-11-04T00:21:34.326Z,77.83
2018-11-04T00:24:03.423Z,78.50
2018-11-04T00:26:32.422Z,79.63
2018-11-04T00:29:01.518Z,78.98
2018-11-04T00:31:30.555Z,79.30
2018-11-04T00:33:59.606Z,76.81
2018-11-04T00:36:28.646Z,78.14
2018-11-04T00:38:57.707Z,78.24
2018-11-04T00:41:26.721Z,77.37
2018-11-04T00:43:55.759Z,77.71
2018-11-04T00:46:25.451Z,77.81
2018-11-04T00:48:54.503Z,76.97
2018-11-04T00:51:23.566Z,77.59
2018-11-04T00:53:52.623Z,76.91
2018-11-04T00:56:22.266Z,77.06
2018-11-04T00:58:52.974Z,76.55
2018-11-04T01:01:22.104Z,77.62
2018-11-04T01:03:51.134Z,76.93
2018-11-04T01:06:20.894Z,77.00
2018-11-04T01:08:49.938Z,77.26
2018-11-04T01:11:18.990Z,77.02
2018-11-04T01:13:48.918Z,77.67
2018-11-04T01:16:17.963Z,79.12
2018-11-04T01:18:46.996Z,77.34
2018-11-04T01:21:16.061Z,77.59
2018-11-04T01:23:45.106Z,77.56
2018-11-04T01:26:14.162Z,77.43
2018-11-04T01:28:43.225Z,79.47
2018-11-04T01:31:12.287Z,79.27
2018-11-04T01:33:41.298Z,80.81
2018-11-04T01:36:10.358Z,82.36
2018-11-04T01:38:39.383Z,80.67
2018-11-04T01:41:08.777Z,79.51
2018-11-04T01:43:37.845Z,79.73
2018-11-04T01:46:06.879Z,79.82
2018-11-04T01:48:35.936Z,81.65
2018-11-04T01:51:04.979Z,81.45
2018-11-04T01:53:34.022Z,79.99
2018-11-04T01:56:03.070Z,79.54
2018-11-04T01:58:32.138Z,83.43
2018-11-04T02:01:02.110Z,83.48
2018-11-04T02:03:31.119Z,81.17
2018-11-04T02:06:00.179Z,81.90
2018-11-04T02:08:29.817Z,83.15
2018-11-04T02:10:58.848Z,81.29
2018-11-04T02:13:27.945Z,81.04
2018-11-04T02:15:57.777Z,84.04
2018-11-04T02:18:26.835Z,82.43
2018-11-04T02:20:55.890Z,80.93
2018-11-04T02:23:26.462Z,81.79
2018-11-04T02:25:55.488Z,82.90
2018-11-04T02:28:24.581Z,82.34
2018-11-04T02:30:53.667Z,82.72
2018-11-04T02:33:22.734Z,81.29
2018-11-04T02:35:51.777Z,80.30
2018-11-04T02:38:20.833Z,81.00
2018-11-04T02:40:49.866Z,79.98
2018-11-04T02:43:18.905Z,79.54
2018-11-04T02:45:47.934Z,78.75
2018-11-04T02:48:16.995Z,79.42
2018-11-04T02:50:46.040Z,79.29
2018-11-04T02:53:15.082Z,79.21
2018-11-04T02:55:44.178Z,79.40
2018-11-04T02:58:13.220Z,79.28
2018-11-04T03:00:42.251Z,79.19
2018-11-04T03:03:11.335Z,79.83
2018-11-04T03:05:40.351Z,80.61
2018-11-04T03:08:10.430Z,79.98
2018-11-04T03:10:39.478Z,80.20
2018-11-04T03:13:08.530Z,81.36
2018-11-04T03:15:37.559Z,80.12
2018-11-04T03:18:06.602Z,79.47
2018-11-04T03:20:35.669Z,81.97
2018-11-04T03:23:04.831Z,81.33
2018-11-04T03:25:33.980Z,80.72
2018-11-04T03:28:02.970Z,80.83
2018-11-04T03:30:32.034Z,82.30
2018-11-04T03:33:01.027Z,81.13
2018-11-04T03:35:30.074Z,83.15
2018-11-04T03:37:59.127Z,80.84
2018-11-04T03:40:28.173Z,82.17
2018-11-04T03:42:57.252Z,80.43
2018-11-04T03:45:26.698Z,82.83
2018-11-04T03:47:55.751Z,80.39
2018-11-04T03:50:24.833Z,81.36
2018-11-04T03:52:53.882Z,80.88
2018-11-04T03:55:23.154Z,81.18
2018-11-04T03:57:52.221Z,81.86
2018-11-04T04:00:21.277Z,80.65
2018-11-04T04:02:50.317Z,82.29
2018-11-04T04:05:19.396Z,81.29
2018-11-04T04:07:48.454Z,80.99
2018-11-04T04:10:17.534Z,80.24
2018-11-04T04:12:46.580Z,80.74
2018-11-04T04:15:15.631Z,82.70
2018-11-04T04:17:44.677Z,79.38
2018-11-04T04:20:13.702Z,80.72
2018-11-04T04:22:42.802Z,80.78
2018-11-04T04:25:11.873Z,80.73
2018-11-04T04:27:40.951Z,81.89
2018-11-04T04:30:10.922Z,82.92
2018-11-04T04:32:40.033Z,81.83
2018-11-04T04:35:10.019Z,82.31
2018-11-04T04:37:39.275Z,81.89
2018-11-04T04:40:08.442Z,81.18
2018-11-04T04:42:37.576Z,81.71
2018-11-04T04:45:06.653Z,81.73
2018-11-04T04:47:35.726Z,83.55
2018-11-04T04:50:05.281Z,83.16
2018-11-04T04:52:34.608Z,83.68
2018-11-04T04:55:03.703Z,85.33
2018-11-04T04:57:32.715Z,83.46
2018-11-04T05:00:01.774Z,83.33
2018-11-04T05:02:30.826Z,82.30
2018-11-04T05:04:59.904Z,84.16
2018-11-04T05:07:29.979Z,84.44
2018-11-04T05:09:59.002Z,82.16
2018-11-04T05:12:28.055Z,81.53
2018-11-04T05:14:57.126Z,81.43
2018-11-04T05:17:26.190Z,83.62
2018-11-04T05:19:55.262Z,82.08
2018-11-04T05:22:24.310Z,83.48
2018-11-04T05:24:53.346Z,83.00
2018-11-04T05:27:22.389Z,82.95
2018-11-04T05:29:51.465Z,81.46
2018-11-04T05:32:20.470Z,82.52
2018-11-04T05:34:49.534Z,81.50
2018-11-04T05:37:18.541Z,81.62
2018-11-04T05:39:47.618Z,81.62
2018-11-04T05:42:16.654Z,81.41
2018-11-04T05:44:45.707Z,81.83
2018-11-04T05:47:14.767Z,83.38
2018-11-04T05:49:43.824Z,80.72
2018-11-04T05:52:12.892Z,80.22
2018-11-04T05:54:41.974Z,82.78
2018-11-04T05:57:10.991Z,81.79
2018-11-04T05:59:40.093Z,81.53
2018-11-04T06:02:09.137Z,81.40
2018-11-04T06:04:38.166Z,81.03
2018-11-04T06:07:07.512Z,82.53
2018-11-04T06:09:37.462Z,81.00
2018-11-04T06:12:06.513Z,80.45
2018-11-04T06:14:35.558Z,80.76
2018-11-04T06:17:04.631Z,80.51
2018-11-04T06:19:33.748Z,80.24
2018-11-04T06:22:02.705Z,80.65
2018-11-04T06:24:33.148Z,81.44
2018-11-04T06:27:02.230Z,80.30
2018-11-04T06:29:31.265Z,79.35
2018-11-04T06:32:00.373Z,80.08
2018-11-04T06:34:29.410Z,80.17
2018-11-04T06:36:58.474Z,80.48
2018-11-04T06:39:27.507Z,82.06
2018-11-04T06:41:56.991Z,81.61
2018-11-04T06:44:26.034Z,81.23
2018-11-04T06:46:55.791Z,81.93
2018-11-04T06:49:24.864Z,81.84
2018-11-04T06:51:53.887Z,81.65
2018-11-04T06:54:23.687Z,79.51
2018-11-04T06:56:54.113Z,80.81
2018-11-04T06:59:25.208Z,82.87
2018-11-04T07:01:54.364Z,81.76
2018-11-04T07:04:26.182Z,81.13
2018-11-04T07:06:58.355Z,82.11
2018-11-04T07:09:28.310Z,80.85
2018-11-04T07:11:58.106Z,83.92
2018-11-04T07:14:29.070Z,82.36
2018-11-04T07:16:59.406Z,82.94
2018-11-04T07:19:29.653Z,82.03
2018-11-04T07:21:59.241Z,82.40
2018-11-04T07:24:29.579Z,82.48
2018-11-04T07:26:59.565Z,83.49
2018-11-04T07:29:28.614Z,84.12
2018-11-04T07:31:57.742Z,83.21
2018-11-04T07:34:26.733Z,83.77
2018-11-04T07:36:55.910Z,87.36
2018-11-04T07:39:24.941Z,85.17
2018-11-04T07:41:54.039Z,83.71
2018-11-04T07:44:25.191Z,84.21
2018-11-04T07:46:54.124Z,85.23
2018-11-04T07:49:23.171Z,84.50
2018-11-04T07:51:52.199Z,85.72
2018-11-04T07:54:21.386Z,86.13
2018-11-04T07:56:50.949Z,85.29
2018-11-04T07:59:20.014Z,87.65
2018-11-04T08:01:49.177Z,87.06
2018-11-04T08:04:18.320Z,87.02
2018-11-04T08:06:47.324Z,85.27
2018-11-04T08:09:16.393Z,85.28
2018-11-04T08:11:45.519Z,85.64
2018-11-04T08:14:14.592Z,87.11
2018-11-04T08:16:44.489Z,87.70
2018-11-04T08:19:13.552Z,86.49
2018-11-04T08:21:42.619Z,86.42
2018-11-04T08:24:11.691Z,87.97
2018-11-04T08:29:52.150Z,86.20
2018-11-04T08:32:21.190Z,85.39
2018-11-04T08:34:50.227Z,85.35
2018-11-04T08:37:20.198Z,85.20
2018-11-04T08:39:49.347Z,86.42
2018-11-04T08:42:18.394Z,86.01
2018-11-04T08:44:47.519Z,86.51
2018-11-04T08:47:17.095Z,85.79
2018-11-04T08:49:46.267Z,85.12
2018-11-04T08:52:15.514Z,85.33
2018-11-04T08:54:44.646Z,86.74
2018-11-04T08:57:14.043Z,85.47
2018-11-04T08:59:43.289Z,85.50
2018-11-04T09:02:12.396Z,84.88
2018-11-04T09:04:41.488Z,85.40
2018-11-04T09:07:10.553Z,84.73
2018-11-04T09:09:39.908Z,84.47
2018-11-04T09:12:09.005Z,85.04
2018-11-04T09:14:38.058Z,85.16
2018-11-04T09:17:07.779Z,84.61
2018-11-04T09:19:37.752Z,84.71
2018-11-04T09:22:07.426Z,84.06
2018-11-04T09:24:36.488Z,84.25
2018-11-04T09:27:05.854Z,83.88
2018-11-04T09:29:34.960Z,83.71
2018-11-04T09:32:04.278Z,83.48
2018-11-04T09:34:33.407Z,83.03
2018-11-04T09:37:02.481Z,83.21
2018-11-04T09:39:31.625Z,83.07
2018-11-04T09:42:00.704Z,82.62
2018-11-04T09:44:29.834Z,82.00
2018-11-04T09:46:58.875Z,82.56
2018-11-04T09:49:27.963Z,82.04
2018-11-04T09:51:57.992Z,82.02
2018-11-04T09:54:27.052Z,81.68
2018-11-04T09:56:56.089Z,81.86
2018-11-04T09:59:25.174Z,81.88
2018-11-04T10:01:54.202Z,81.82
2018-11-04T10:04:23.394Z,81.27
2018-11-04T10:06:52.557Z,81.72
2018-11-04T10:09:23.104Z,81.91
2018-11-04T10:11:52.176Z,81.45
2018-11-04T10:14:22.570Z,81.07
2018-11-04T10:16:51.649Z,81.89
2018-11-04T10:19:21.462Z,81.28
2018-11-04T10:21:50.325Z,80.98
2018-11-04T10:24:19.398Z,81.45
2018-11-04T10:26:50.807Z,81.07
2018-11-04T10:29:20.114Z,80.35
2018-11-04T10:31:50.380Z,79.38
2018-11-04T10:34:19.407Z,80.51
2018-11-04T10:36:49.742Z,79.42
2018-11-04T10:39:18.943Z,80.44
2018-11-04T10:41:48.089Z,79.83
2018-11-04T10:44:21.298Z,80.24
2018-11-04T10:46:59.801Z,80.32
2018-11-04T10:49:30.053Z,79.63
2018-11-04T10:51:59.042Z,78.76
2018-11-04T10:54:28.213Z,79.46
2018-11-04T11:00:30.507Z,79.29
2018-11-04T11:07:08.126Z,79.10
2018-11-04T11:09:39.629Z,78.07
2018-11-04T11:12:18.934Z,78.61
2018-11-04T11:20:52.922Z,78.65
2018-11-04T11:45:34.968Z,76.85
2018-11-04T11:51:08.815Z,74.10
2018-11-04T11:57:08.404Z,74.74
2018-11-04T11:59:51.736Z,74.70
2018-11-04T12:02:22.616Z,74.82
2018-11-04T12:04:58.680Z,72.24
2018-11-04T12:07:36.544Z,75.29
2018-11-04T12:10:28.760Z,70.86
2018-11-04T12:13:14.089Z,73.90
2018-11-04T12:15:59.525Z,73.39
2018-11-04T12:21:55.615Z,73.83
2018-11-04T12:24:31.376Z,70.29
2018-11-04T12:27:02.856Z,72.85
2018-11-04T12:29:32.038Z,73.11
2018-11-04T12:32:01.196Z,69.89
2018-11-04T12:34:30.295Z,69.06
2018-11-04T12:37:01.158Z,71.23
2018-11-04T12:39:30.327Z,71.38
2018-11-04T12:41:59.439Z,68.88
2018-11-04T12:44:31.575Z,69.93
2018-11-04T12:47:34.794Z,69.32
2018-11-04T12:50:11.892Z,69.32
2018-11-04T12:52:42.182Z,70.91
2018-11-04T12:55:11.246Z,67.65
2018-11-04T12:57:41.153Z,70.46
2018-11-04T13:00:15.167Z,70.83
2018-11-04T13:02:45.184Z,70.78
2018-11-04T13:05:14.239Z,69.64
2018-11-04T13:07:44.242Z,71.42
2018-11-04T13:10:15.445Z,71.09
2018-11-04T13:12:48.895Z,68.62
2018-11-04T13:15:17.998Z,67.95
2018-11-04T13:17:48.994Z,68.99
2018-11-04T13:20:18.090Z,68.12
2018-11-04T13:22:47.136Z,70.81
2018-11-04T13:25:16.279Z,68.68
2018-11-04T13:27:45.304Z,70.71
2018-11-04T13:30:14.745Z,68.83
2018-11-04T13:32:44.368Z,71.62
2018-11-04T13:35:13.481Z,67.59
2018-11-04T13:37:42.750Z,71.00
2018-11-04T13:40:12.618Z,67.90
2018-11-04T13:42:42.295Z,70.52
2018-11-04T13:45:11.899Z,68.34
2018-11-04T13:47:40.967Z,71.06
2018-11-04T13:50:11.486Z,69.65
2018-11-04T13:52:40.534Z,69.17
2018-11-04T13:55:10.213Z,68.69
2018-11-04T13:57:40.412Z,70.05
2018-11-04T14:00:11.925Z,70.47
2018-11-04T14:02:41.032Z,70.63
2018-11-04T14:05:10.700Z,70.65
2018-11-04T14:07:40.475Z,70.82
2018-11-04T14:10:10.749Z,68.18
2018-11-04T14:12:39.874Z,70.48
2018-11-04T14:15:08.890Z,71.37
2018-11-04T14:17:37.958Z,70.79
2018-11-04T14:20:08.713Z,71.51
2018-11-04T14:22:37.913Z,69.14
2018-11-04T14:25:08.358Z,71.09
2018-11-04T14:27:37.543Z,69.75
2018-11-04T14:30:09.241Z,71.14
2018-11-04T14:32:46.712Z,68.74
2018-11-04T14:35:15.888Z,71.14
2018-11-04T14:37:46.064Z,70.42
2018-11-04T14:40:16.299Z,71.43
2018-11-04T14:42:53.641Z,70.90
2018-11-04T14:45:22.790Z,71.26
2018-11-04T14:47:55.263Z,70.91
2018-11-04T14:50:24.459Z,71.16
2018-11-04T14:52:53.816Z,71.62
2018-11-04T14:55:26.399Z,71.77
2018-11-04T14:58:02.701Z,68.92
2018-11-04T15:00:36.290Z,72.56
2018-11-04T15:03:07.352Z,71.78
2018-11-04T15:05:36.706Z,72.25
2018-11-04T15:08:06.894Z,72.30
2018-11-04T15:10:36.190Z,72.18
2018-11-04T15:13:05.530Z,71.31
2018-11-04T15:15:35.032Z,71.70
2018-11-04T15:18:04.247Z,72.14
2018-11-04T15:20:33.333Z,71.91
2018-11-04T15:23:03.084Z,71.58
2018-11-04T15:25:32.224Z,72.17
2018-11-04T15:28:01.484Z,72.27
2018-11-04T15:30:30.630Z,71.23
2018-11-04T15:32:59.740Z,72.05
2018-11-04T15:35:28.888Z,72.08
2018-11-04T15:37:58.028Z,72.16
2018-11-04T15:40:27.178Z,72.77
2018-11-04T15:42:57.017Z,72.53
2018-11-04T15:45:26.195Z,72.49
2018-11-04T15:47:55.414Z,72.02
2018-11-04T15:50:24.603Z,72.57
2018-11-04T15:52:54.107Z,72.31
2018-11-04T15:55:23.241Z,72.55
2018-11-04T15:57:52.363Z,72.77
2018-11-04T16:00:22.935Z,72.16
2018-11-04T16:02:52.165Z,72.04
2018-11-04T16:05:21.330Z,72.05
2018-11-04T16:07:50.434Z,72.52
2018-11-04T16:10:19.776Z,73.07
2018-11-04T16:12:48.826Z,72.84
2018-11-04T16:15:17.952Z,72.67
2018-11-04T16:17:47.048Z,72.58
2018-11-04T16:20:17.131Z,72.93
2018-11-04T16:22:46.539Z,72.60
2018-11-04T16:25:15.706Z,72.87
2018-11-04T16:27:44.902Z,73.02
2018-11-04T16:30:15.115Z,72.94
2018-11-04T16:32:44.410Z,73.09
2018-11-04T16:35:14.394Z,73.17
2018-11-04T16:37:44.936Z,73.04
2018-11-04T16:40:14.770Z,73.50
2018-11-04T16:42:43.855Z,73.38
2018-11-04T16:45:14.689Z,72.94
2018-11-04T16:47:50.779Z,73.68
2018-11-04T16:50:23.216Z,73.34
2018-11-04T16:52:52.347Z,74.25
2018-11-04T16:55:21.604Z,74.07
2018-11-04T16:57:50.749Z,73.27
2018-11-04T17:00:19.891Z,73.82
2018-11-04T17:02:49.168Z,74.16
2018-11-04T17:05:18.417Z,73.71
2018-11-04T17:07:47.467Z,73.14
2018-11-04T17:10:16.551Z,74.27
2018-11-04T17:12:45.904Z,73.79
2018-11-04T17:15:15.614Z,74.06
2018-11-04T17:17:44.795Z,73.47
2018-11-04T17:20:17.318Z,73.95
2018-11-04T17:22:46.754Z,74.64
2018-11-04T17:25:15.858Z,74.10
2018-11-04T17:27:44.954Z,74.32
2018-11-04T17:30:16.238Z,74.24
2018-11-04T17:32:45.444Z,74.17
2018-11-04T17:35:15.194Z,75.35
2018-11-04T17:37:44.652Z,74.50
2018-11-04T17:40:14.886Z,74.24
2018-11-04T17:42:45.164Z,74.99
2018-11-04T17:45:15.641Z,75.01
2018-11-04T17:47:46.883Z,74.68
2018-11-04T17:50:18.696Z,75.51
2018-11-04T17:52:48.859Z,76.36
2018-11-04T17:55:18.055Z,77.24
2018-11-04T17:57:47.261Z,78.08
2018-11-04T18:00:17.260Z,75.19
2018-11-04T18:02:46.501Z,74.99
2018-11-04T18:05:15.750Z,75.81
2018-11-04T18:07:45.289Z,74.89
2018-11-04T18:10:16.013Z,76.92
2018-11-04T18:12:46.422Z,75.48
2018-11-04T18:15:16.087Z,75.53
2018-11-04T18:17:45.451Z,75.69
2018-11-04T18:20:15.289Z,76.64
2018-11-04T18:22:44.672Z,76.32
2018-11-04T18:25:14.774Z,76.55
2018-11-04T18:27:44.045Z,76.70
2018-11-04T18:30:24.807Z,75.87
2018-11-04T18:32:55.752Z,75.85
2018-11-04T18:35:25.211Z,78.15
2018-11-04T18:37:54.692Z,76.04
2018-11-04T18:40:24.761Z,75.75
2018-11-04T18:42:55.241Z,76.82
2018-11-04T18:45:24.571Z,76.27
2018-11-04T18:47:53.702Z,77.09
2018-11-04T18:50:23.415Z,75.60
2018-11-04T18:52:52.845Z,76.51
2018-11-04T18:55:22.589Z,76.98
2018-11-04T18:57:51.823Z,76.99
2018-11-04T19:00:21.379Z,76.12
2018-11-04T19:02:50.519Z,76.35
2018-11-04T19:05:20.578Z,75.80
2018-11-04T19:07:49.778Z,76.59
2018-11-04T19:10:19.937Z,76.56
2018-11-04T19:12:49.253Z,76.14
2018-11-04T19:15:20.007Z,76.30
2018-11-04T19:17:55.288Z,76.85
2018-11-04T19:20:26.888Z,77.47
2018-11-04T19:22:56.115Z,76.53
2018-11-04T19:25:25.403Z,75.85
2018-11-04T19:27:54.502Z,75.85
2018-11-04T19:30:23.599Z,76.64
2018-11-04T19:32:53.393Z,77.10
2018-11-04T19:35:22.518Z,75.26
2018-11-04T19:37:52.220Z,75.92
2018-11-04T19:40:21.894Z,76.08
2018-11-04T19:42:51.130Z,76.32
2018-11-04T19:45:20.200Z,76.39
2018-11-04T19:47:49.270Z,76.01
2018-11-04T19:50:18.442Z,75.69
2018-11-04T19:52:47.698Z,76.70
2018-11-04T19:55:16.814Z,77.41
2018-11-04T19:57:46.021Z,76.89
2018-11-04T20:00:15.828Z,80.25
2018-11-04T20:02:44.987Z,76.53
2018-11-04T20:05:14.230Z,76.83
2018-11-04T20:07:43.270Z,77.14
2018-11-04T20:10:15.215Z,78.56
2018-11-04T20:12:49.674Z,77.58
2018-11-04T20:15:18.767Z,77.07
2018-11-04T20:17:48.670Z,76.99
2018-11-04T20:20:20.928Z,76.60
2018-11-04T20:22:49.841Z,76.22
2018-11-04T20:25:25.235Z,77.06
2018-11-04T20:27:54.287Z,76.12
2018-11-04T20:30:24.876Z,76.00
2018-11-04T20:32:59.243Z,76.22
2018-11-04T20:35:28.324Z,76.45
2018-11-04T20:37:57.414Z,76.66
2018-11-04T20:40:39.763Z,75.97
2018-11-04T20:43:08.893Z,76.40
2018-11-04T20:45:37.983Z,75.76
2018-11-04T20:48:12.921Z,75.85
2018-11-04T20:50:52.397Z,76.25
2018-11-04T20:53:21.524Z,76.56
2018-11-04T20:55:55.815Z,75.82
2018-11-04T20:58:25.060Z,75.77
2018-11-04T21:00:55.673Z,77.92
2018-11-04T21:03:24.771Z,76.43
2018-11-04T21:05:53.964Z,76.31
2018-11-04T21:08:25.946Z,76.36
2018-11-04T21:10:55.250Z,76.29
2018-11-04T21:13:24.356Z,76.88
2018-11-04T21:15:53.494Z,76.15
2018-11-04T21:18:22.521Z,76.46
2018-11-04T21:20:51.594Z,76.39
2018-11-04T21:23:20.995Z,75.94
2018-11-04T21:25:50.264Z,76.62
2018-11-04T21:28:19.270Z,76.32
2018-11-04T21:30:48.316Z,77.76
2018-11-04T21:33:17.354Z,76.31
2018-11-04T21:35:46.403Z,76.80
2018-11-04T21:38:15.470Z,77.45
2018-11-04T21:40:45.332Z,76.31
2018-11-04T21:43:14.604Z,76.50
2018-11-04T21:45:43.398Z,76.44
2018-11-04T21:48:12.451Z,76.60
2018-11-04T21:50:41.459Z,76.43
2018-11-04T21:53:14.405Z,76.54
2018-11-04T21:55:43.741Z,76.87
2018-11-04T21:58:13.810Z,76.47
2018-11-04T22:00:42.886Z,76.95
2018-11-04T22:03:12.000Z,76.62
2018-11-04T22:05:41.029Z,76.50
2018-11-04T22:08:10.072Z,76.61
2018-11-04T22:10:39.136Z,76.76
2018-11-04T22:13:08.180Z,77.01
2018-11-04T22:15:38.143Z,77.44
2018-11-04T22:18:07.218Z,77.51
2018-11-04T22:20:36.306Z,77.58
2018-11-04T22:23:05.350Z,76.80
2018-11-04T22:25:36.241Z,76.94
2018-11-04T22:28:05.378Z,77.44
2018-11-04T22:30:34.442Z,77.94
2018-11-04T22:33:03.510Z,77.35
2018-11-04T22:35:32.561Z,77.46
2018-11-04T22:38:01.585Z,76.82
2018-11-04T22:40:30.605Z,77.58
2018-11-04T22:42:59.662Z,77.38
2018-11-04T22:45:28.938Z,77.26
2018-11-04T22:47:57.979Z,77.90
2018-11-04T22:50:27.027Z,77.69
2018-11-04T22:52:56.880Z,77.70
2018-11-04T22:55:26.482Z,77.31
2018-11-04T22:57:59.753Z,77.72
2018-11-04T23:00:34.104Z,77.75
2018-11-04T23:03:03.196Z,77.88
2018-11-04T23:05:33.448Z,77.75
2018-11-04T23:08:02.577Z,77.84
2018-11-04T23:10:31.642Z,78.22
2018-11-04T23:13:00.694Z,77.40
2018-11-04T23:15:30.590Z,78.38
2018-11-04T23:17:59.619Z,78.49
2018-11-04T23:20:28.627Z,77.98
2018-11-04T23:22:57.658Z,77.99
2018-11-04T23:25:26.702Z,78.78
2018-11-04T23:27:55.765Z,77.56
2018-11-04T23:30:25.499Z,78.54
2018-11-04T23:32:55.195Z,77.45
2018-11-04T23:35:24.269Z,78.84
2018-11-04T23:37:53.311Z,78.76
2018-11-04T23:40:22.358Z,78.44
2018-11-04T23:42:51.382Z,78.07
2018-11-04T23:45:20.438Z,78.43
2018-11-04T23:47:49.546Z,78.32
2018-11-04T23:50:18.591Z,78.62
2018-11-04T23:52:47.641Z,78.30
2018-11-04T23:55:16.710Z,78.18
2018-11-04T23:57:45.762Z,78.09
